Time;durP1;ratioP1;P1;durP2;ratioP2;P2;SDS_P1;SDS_P2;PMS_P1;PMS_P2;Temp;Humidity;BMP_temperature;BMP_pressure;BME280_temperature;BME280_humidity;BME280_pressure;Samples;Min_cycle;Max_cycle;Signal;HPM_P1;HPM_P2
2023/01/14 00:01:16;;;;;;;58.67;30.70;;;4.60;99.90;;;;;;4940219;29;20549;-79
2023/01/14 00:03:42;;;;;;;79.38;32.55;;;4.70;99.90;;;;;;4930605;29;20110;-79
2023/01/14 00:06:11;;;;;;;57.58;28.33;;;4.70;99.90;;;;;;4942924;29;20031;-78
2023/01/14 00:08:37;;;;;;;57.75;30.00;;;4.70;99.90;;;;;;4942212;29;20107;-79
2023/01/14 00:11:03;;;;;;;;;;;4.60;99.90;;;;;;4942495;29;20055;-79
2023/01/14 00:13:32;;;;;;;58.28;27.90;;;4.60;99.90;;;;;;4940627;29;20439;-79
2023/01/14 00:15:58;;;;;;;62.38;32.45;;;4.70;99.90;;;;;;4940722;29;20035;-78
2023/01/14 00:18:24;;;;;;;;;;;4.70;99.90;;;;;;4958396;29;20122;-79
2023/01/14 00:21:08;;;;;;;74.43;34.53;;;4.70;99.90;;;;;;4941029;29;19910;-78
2023/01/14 00:23:35;;;;;;;64.93;33.03;;;4.70;99.90;;;;;;4946043;29;20038;-79
2023/01/14 00:26:14;;;;;;;71.40;34.75;;;4.70;99.90;;;;;;4950976;29;20030;-79
2023/01/14 00:28:40;;;;;;;70.45;38.38;;;4.70;99.90;;;;;;4968118;29;20038;-81
2023/01/14 00:31:12;;;;;;;68.00;34.13;;;4.70;99.90;;;;;;4951931;29;20053;-79
2023/01/14 00:33:39;;;;;;;77.38;36.95;;;4.70;99.90;;;;;;4952348;29;20031;-79
2023/01/14 00:36:08;;;;;;;87.20;41.47;;;4.70;99.90;;;;;;4950655;29;20031;-79
2023/01/14 00:38:34;;;;;;;80.97;38.55;;;4.70;99.90;;;;;;4969744;29;20082;-79
2023/01/14 00:41:09;;;;;;;76.32;36.60;;;4.70;99.90;;;;;;4954248;29;20054;-80
2023/01/14 00:43:36;;;;;;;92.50;44.20;;;4.70;99.90;;;;;;4954727;29;20053;-80
2023/01/14 00:46:08;;;;;;;83.47;38.72;;;4.60;99.90;;;;;;4951487;29;20059;-80
2023/01/14 00:48:35;;;;;;;67.35;34.05;;;4.60;99.90;;;;;;4951604;29;20099;-79
2023/01/14 00:51:01;;;;;;;74.03;35.60;;;4.60;99.90;;;;;;4968750;28;20035;-80
2023/01/14 00:53:27;;;;;;;70.00;34.15;;;4.60;99.90;;;;;;4952465;29;20058;-80
2023/01/14 00:55:53;;;;;;;91.28;40.97;;;4.60;99.90;;;;;;4958505;29;20038;-80
2023/01/14 00:58:19;;;;;;;;;;;4.60;99.90;;;;;;4957746;29;20051;-80
2023/01/14 01:00:44;;;;;;;70.72;31.88;;;4.70;99.90;;;;;;4974061;28;19906;-79
2023/01/14 01:03:10;;;;;;;;;;;4.70;99.90;;;;;;4953235;29;20122;-79
2023/01/14 01:05:36;;;;;;;64.65;28.88;;;4.70;99.90;;;;;;4964559;28;19929;-80
2023/01/14 01:08:02;;;;;;;;;;;4.70;99.90;;;;;;4964730;28;20043;-79
2023/01/14 01:10:28;;;;;;;70.28;32.38;;;4.70;99.90;;;;;;4946832;29;19906;-79
2023/01/14 01:12:54;;;;;;;;;;;4.70;99.90;;;;;;4946658;29;20027;-79
2023/01/14 01:15:19;;;;;;;72.47;31.80;;;4.70;99.90;;;;;;4946271;29;19906;-79
2023/01/14 01:17:45;;;;;;;;;;;4.70;99.90;;;;;;4963774;29;20031;-78
2023/01/14 01:20:11;;;;;;;73.47;31.50;;;4.70;99.90;;;;;;4959845;29;19929;-80
2023/01/14 01:22:36;;;;;;;;;;;4.70;99.90;;;;;;4946018;29;20031;-79
2023/01/14 01:25:02;;;;;;;83.95;35.03;;;4.70;99.90;;;;;;4945506;29;20131;-78
2023/01/14 01:27:27;;;;;;;;;;;4.70;99.90;;;;;;4945530;29;20028;-79
2023/01/14 01:29:53;;;;;;;80.78;34.22;;;4.70;99.90;;;;;;4945454;29;19918;-79
2023/01/14 01:32:19;;;;;;;;;;;4.70;99.90;;;;;;4946783;29;20034;-80
2023/01/14 01:34:45;;;;;;;78.05;34.35;;;4.70;99.90;;;;;;4963751;29;19910;-79
2023/01/14 01:37:10;;;;;;;;;;;4.60;99.90;;;;;;4963700;29;20038;-77
2023/01/14 01:39:36;;;;;;;86.18;35.63;;;4.70;99.90;;;;;;4961219;29;19913;-78
2023/01/14 01:42:02;;;;;;;;;;;4.70;99.90;;;;;;4944570;29;20097;-79
2023/01/14 01:44:27;;;;;;;80.82;34.63;;;4.70;99.90;;;;;;4943916;29;19910;-79
2023/01/14 01:46:53;;;;;;;;;;;4.70;99.90;;;;;;4962104;29;20454;-79
2023/01/14 01:49:27;;;;;;;386.33;44.30;;;4.70;99.90;;;;;;4943681;29;19914;-79
2023/01/14 01:51:52;;;;;;;95.78;36.60;;;4.70;99.90;;;;;;4943241;29;20034;-79
2023/01/14 01:54:20;;;;;;;;;;;4.70;99.90;;;;;;4960585;28;20106;-78
2023/01/14 01:56:46;;;;;;;108.25;39.25;;;4.60;99.90;;;;;;4941044;29;20383;-79
2023/01/14 01:59:23;;;;;;;89.88;37.67;;;4.60;99.90;;;;;;4943487;29;20058;-79
2023/01/14 02:01:50;;;;;;;130.07;41.05;;;4.60;99.90;;;;;;4960562;28;20023;-79
2023/01/14 02:04:16;;;;;;;233.48;51.10;;;4.60;99.90;;;;;;4964732;29;20043;-79
2023/01/14 02:06:41;;;;;;;;;;;4.60;99.90;;;;;;4950550;29;20481;-79
2023/01/14 02:09:07;;;;;;;143.85;46.42;;;4.60;99.90;;;;;;4974244;29;19921;-79
2023/01/14 02:11:56;;;;;;;;;;;4.60;99.90;;;;;;4949943;29;20067;-79
2023/01/14 02:14:36;;;;;;;81.20;36.28;;;4.60;99.90;;;;;;4962027;28;19907;-79
2023/01/14 02:17:17;;;;;;;88.63;34.17;;;4.60;99.90;;;;;;4964761;29;20027;-80
2023/01/14 02:20:01;;;;;;;88.95;35.40;;;4.60;99.90;;;;;;4940487;29;20031;-78
2023/01/14 02:22:48;;;;;;;85.47;36.10;;;4.60;99.90;;;;;;4938755;29;20033;-78
2023/01/14 02:25:22;;;;;;;78.22;34.50;;;4.60;99.90;;;;;;4939760;29;20122;-79
2023/01/14 02:28:08;;;;;;;85.63;34.47;;;4.60;99.90;;;;;;4939193;29;20069;-80
2023/01/14 02:30:36;;;;;;;82.93;34.75;;;4.60;99.90;;;;;;4956275;29;20031;-78
2023/01/14 02:33:17;;;;;;;73.68;32.25;;;4.60;99.90;;;;;;4956653;29;20050;-78
2023/01/14 02:35:50;;;;;;;85.00;35.30;;;4.60;99.90;;;;;;4939704;29;20039;-78
2023/01/14 02:38:48;;;;;;;78.10;32.75;;;4.60;99.90;;;;;;4942883;29;20033;-79
2023/01/14 02:41:17;;;;;;;66.10;28.77;;;4.60;99.90;;;;;;4946415;29;20028;-78
2023/01/14 02:44:11;;;;;;;67.55;30.50;;;4.60;99.90;;;;;;4960895;29;20058;-80
2023/01/14 02:46:58;;;;;;;69.43;29.30;;;4.60;99.90;;;;;;4943921;29;20031;-79
2023/01/14 02:49:31;;;;;;;76.25;29.48;;;4.60;99.90;;;;;;4930448;29;20536;-80
2023/01/14 02:51:58;;;;;;;73.38;29.67;;;4.60;99.90;;;;;;4959954;29;20023;-79
2023/01/14 02:54:25;;;;;;;79.65;32.35;;;4.60;99.90;;;;;;4962796;28;20401;-79
2023/01/14 02:56:55;;;;;;;75.97;30.45;;;4.60;99.90;;;;;;4961717;29;20039;-80
2023/01/14 02:59:30;;;;;;;77.40;31.77;;;4.60;99.90;;;;;;4961291;29;20027;-79
2023/01/14 03:02:24;;;;;;;60.17;25.05;;;4.60;99.90;;;;;;4944155;29;20023;-79
2023/01/14 03:05:02;;;;;;;56.03;24.58;;;4.60;99.90;;;;;;4943816;29;20035;-80
2023/01/14 03:07:32;;;;;;;57.40;23.65;;;4.60;99.90;;;;;;4944263;29;20478;-78
2023/01/14 03:10:10;;;;;;;62.00;25.83;;;4.50;99.90;;;;;;4943554;29;20042;-80
2023/01/14 03:12:46;;;;;;;61.55;25.20;;;4.50;99.90;;;;;;4958622;28;20102;-80
2023/01/14 03:15:50;;;;;;;58.45;25.02;;;4.50;99.90;;;;;;4942377;29;20031;-79
2023/01/14 03:18:31;;;;;;;63.47;26.48;;;4.50;99.90;;;;;;4958407;29;20019;-79
2023/01/14 03:21:04;;;;;;;64.88;24.55;;;4.50;99.90;;;;;;4942866;29;20051;-78
2023/01/14 03:23:37;;;;;;;70.28;27.70;;;4.50;99.90;;;;;;4943271;29;20027;-79
2023/01/14 03:26:07;;;;;;;67.78;27.00;;;4.50;99.90;;;;;;4940923;29;20041;-78
2023/01/14 03:28:38;;;;;;;71.25;26.50;;;4.50;99.90;;;;;;4939666;29;20039;-79
2023/01/14 03:31:10;;;;;;;73.00;29.02;;;4.50;99.90;;;;;;4958935;29;20092;-80
2023/01/14 03:33:52;;;;;;;62.33;25.88;;;4.50;99.90;;;;;;4961036;29;20081;-79
2023/01/14 03:36:20;;;;;;;55.22;23.60;;;4.50;99.90;;;;;;4944686;29;20132;-79
2023/01/14 03:39:10;;;;;;;63.83;26.48;;;4.50;99.90;;;;;;4946826;29;20020;-80
2023/01/14 03:44:32;;;;;;;74.80;27.35;;;4.50;99.90;;;;;;4973593;29;20055;-80
2023/01/14 03:46:58;;;;;;;74.47;28.70;;;4.50;99.90;;;;;;4961038;29;20098;-80
2023/01/14 03:49:23;;;;;;;;;;;4.50;99.90;;;;;;4960790;29;20104;-78
2023/01/14 03:52:02;;;;;;;70.13;26.85;;;4.50;99.90;;;;;;4942687;29;19914;-79
2023/01/14 03:54:40;;;;;;;91.15;29.70;;;4.50;99.90;;;;;;4941816;28;20062;-79
2023/01/14 03:57:21;;;;;;;75.78;28.83;;;4.50;99.90;;;;;;4960458;29;20147;-79
2023/01/14 03:59:58;;;;;;;85.05;30.70;;;4.50;99.90;;;;;;4960380;29;20076;-79
2023/01/14 04:02:25;;;;;;;72.90;29.67;;;4.50;99.90;;;;;;4943657;29;20027;-79
2023/01/14 04:04:52;;;;;;;89.55;30.45;;;4.40;99.90;;;;;;4945147;29;20050;-78
2023/01/14 04:07:18;;;;;;;116.15;35.13;;;4.40;99.90;;;;;;4949107;29;20027;-80
2023/01/14 04:09:44;;;;;;;;;;;4.40;99.90;;;;;;4949372;29;20182;-79
2023/01/14 04:12:09;;;;;;;108.00;34.45;;;4.40;99.90;;;;;;4963056;29;19917;-80
2023/01/14 04:17:19;;;;;;;147.32;37.95;;;4.40;99.90;;;;;;4958853;29;20283;-78
2023/01/14 04:19:45;;;;;;;;;;;4.40;99.90;;;;;;4942282;29;20027;-79
2023/01/14 04:22:10;;;;;;;91.40;32.53;;;4.40;99.90;;;;;;4958019;29;20487;-79
2023/01/14 04:24:36;;;;;;;;;;;4.40;99.90;;;;;;4962585;28;20092;-78
2023/01/14 04:27:02;;;;;;;181.27;38.28;;;4.30;99.90;;;;;;4949033;29;19910;-79
2023/01/14 04:29:27;;;;;;;;;;;4.30;99.90;;;;;;4971095;29;20031;-79
2023/01/14 04:31:53;;;;;;;124.32;34.38;;;4.30;99.90;;;;;;4956122;29;19981;-78
2023/01/14 04:34:19;;;;;;;;;;;4.20;99.90;;;;;;4964517;29;20045;-79
2023/01/14 04:36:44;;;;;;;144.38;36.70;;;4.20;99.90;;;;;;4945652;29;19957;-79
2023/01/14 04:39:10;;;;;;;;;;;4.20;99.90;;;;;;4963125;29;20043;-79
2023/01/14 04:44:20;;;;;;;95.20;36.38;;;4.20;99.90;;;;;;4962269;29;20055;-79
2023/01/14 04:46:45;;;;;;;;;;;4.20;99.90;;;;;;4945407;29;20480;-79
2023/01/14 04:49:11;;;;;;;117.53;38.08;;;4.20;99.90;;;;;;4962415;29;20327;-79
2023/01/14 04:51:36;;;;;;;;;;;4.10;99.90;;;;;;4962970;29;20392;-79
2023/01/14 04:54:02;;;;;;;81.38;33.40;;;4.10;99.90;;;;;;4944973;29;19918;-79
2023/01/14 04:56:28;;;;;;;;;;;4.10;99.90;;;;;;4962430;28;20094;-79
2023/01/14 04:58:53;;;;;;;199.65;37.35;;;4.10;99.90;;;;;;4960591;29;20394;-79
2023/01/14 05:01:19;;;;;;;;;;;4.10;99.90;;;;;;4960193;29;20039;-79
2023/01/14 05:03:45;;;;;;;222.63;38.95;;;4.10;99.90;;;;;;4942102;29;19906;-79
2023/01/14 05:06:10;;;;;;;;;;;4.10;99.90;;;;;;4941933;29;20020;-79
2023/01/14 05:08:36;;;;;;;196.30;37.83;;;4.00;99.90;;;;;;4942589;29;19918;-80
2023/01/14 05:11:01;;;;;;;;;;;4.00;99.90;;;;;;4942639;29;20055;-79
2023/01/14 05:13:27;;;;;;;192.68;36.85;;;4.00;99.90;;;;;;4961173;29;19924;-79
2023/01/14 05:15:57;;;;;;;;;;;3.90;99.90;;;;;;4942045;29;20461;-79
2023/01/14 05:18:23;;;;;;;77.63;31.25;;;3.90;99.90;;;;;;4940890;29;20140;-79
2023/01/14 05:20:49;;;;;;;;;;;3.90;99.90;;;;;;4941477;29;20032;-79
2023/01/14 05:23:16;;;;;;;583.58;49.22;;;3.90;99.90;;;;;;4941273;29;19945;-79
2023/01/14 05:25:43;;;;;;;601.15;47.92;;;3.90;99.90;;;;;;4958845;29;20023;-78
2023/01/14 05:28:11;;;;;;;367.27;37.15;;;3.90;99.90;;;;;;4958086;29;20031;-79
2023/01/14 05:30:37;;;;;;;403.30;39.25;;;4.00;99.90;;;;;;4940931;29;20098;-78
2023/01/14 05:33:03;;;;;;;;;;;4.00;99.90;;;;;;4943880;29;20078;-80
2023/01/14 05:35:29;;;;;;;84.13;32.17;;;3.90;99.90;;;;;;4943029;29;19906;-79
2023/01/14 05:37:55;;;;;;;;;;;3.80;99.90;;;;;;4961157;29;20028;-78
2023/01/14 05:40:20;;;;;;;96.05;34.30;;;3.80;99.90;;;;;;4966079;28;19918;-79
2023/01/14 05:45:49;;;;;;;73.90;30.40;;;3.70;99.90;;;;;;4961343;29;19930;-79
2023/01/14 05:48:17;;;;;;;84.13;32.95;;;3.70;99.90;;;;;;4940106;29;20039;-79
2023/01/14 05:50:43;;;;;;;87.55;32.33;;;3.60;99.90;;;;;;4940550;29;20454;-78
2023/01/14 05:53:08;;;;;;;83.70;32.80;;;3.50;99.90;;;;;;4956985;29;20035;-79
2023/01/14 05:55:34;;;;;;;;;;;3.50;99.90;;;;;;4957217;28;20090;-78
2023/01/14 05:58:02;;;;;;;280.15;40.08;;;3.50;99.90;;;;;;4940764;29;19933;-79
2023/01/14 06:08:46;;;;;;;270.35;37.97;;;3.30;99.90;;;;;;4960987;29;20054;-80
2023/01/14 06:11:11;;;;;;;;;;;3.20;99.90;;;;;;4943175;29;20027;-80
2023/01/14 06:13:37;;;;;;;361.73;39.38;;;3.20;99.90;;;;;;4946866;29;20005;-80
2023/01/14 06:16:06;;;;;;;;;;;3.20;99.90;;;;;;4947317;29;20475;-79
2023/01/14 06:18:38;;;;;;;785.10;50.90;;;3.20;99.90;;;;;;4948614;29;19907;-79
2023/01/14 06:21:07;;;;;;;762.38;55.08;;;3.20;99.90;;;;;;4947106;29;20043;-80
2023/01/14 06:23:33;;;;;;;124.43;37.15;;;3.20;99.90;;;;;;4948026;29;20039;-80
2023/01/14 06:25:59;;;;;;;;;;;3.10;99.90;;;;;;4948579;29;20031;-80
2023/01/14 06:28:26;;;;;;;801.08;56.35;;;3.10;99.90;;;;;;4946736;29;19914;-79
2023/01/14 06:30:52;;;;;;;341.20;41.65;;;3.10;99.90;;;;;;4959974;29;20058;-77
2023/01/14 06:33:17;;;;;;;;;;;3.10;99.90;;;;;;4959286;29;20031;-78
2023/01/14 06:35:44;;;;;;;734.30;53.83;;;3.10;99.90;;;;;;4961515;28;19914;-79
2023/01/14 06:38:11;;;;;;;671.83;50.80;;;3.10;99.90;;;;;;4947547;29;20045;-79
2023/01/14 06:40:38;;;;;;;877.17;51.38;;;3.10;99.90;;;;;;4961023;29;20535;-80
2023/01/14 06:43:06;;;;;;;820.88;53.05;;;3.10;99.90;;;;;;4944652;29;20444;-78
2023/01/14 06:45:31;;;;;;;749.53;49.78;;;3.10;99.90;;;;;;4962402;29;20034;-78
2023/01/14 06:47:57;;;;;;;;;;;3.10;99.90;;;;;;4943363;29;20035;-77
2023/01/14 06:50:23;;;;;;;459.10;37.50;;;3.20;99.90;;;;;;4943868;29;20419;-78
2023/01/14 06:52:52;;;;;;;;;;;3.20;99.90;;;;;;4946711;29;20058;-79
2023/01/14 06:55:20;;;;;;;203.48;33.70;;;3.20;99.90;;;;;;4970040;28;19927;-79
2023/01/14 06:57:46;;;;;;;695.30;73.68;;;3.20;99.90;;;;;;4962078;29;20039;-79
2023/01/14 07:00:12;;;;;;;;;;;3.20;99.90;;;;;;4949993;29;20134;-78
2023/01/14 07:02:38;;;;;;;565.85;45.45;;;3.20;99.90;;;;;;4948574;29;19906;-79
2023/01/14 07:05:04;;;;;;;314.48;37.63;;;3.30;99.90;;;;;;4963747;29;20028;-79
2023/01/14 07:07:30;;;;;;;;;;;3.40;99.90;;;;;;4968129;28;20023;-79
2023/01/14 07:09:55;;;;;;;157.95;43.40;;;3.40;99.90;;;;;;4961231;29;19938;-79
2023/01/14 07:12:21;;;;;;;;;;;3.50;99.90;;;;;;4938698;29;20027;-78
2023/01/14 07:14:47;;;;;;;73.40;33.72;;;3.50;99.90;;;;;;4936469;29;19942;-77
2023/01/14 07:17:13;;;;;;;;;;;3.50;99.90;;;;;;4954217;29;20062;-78
2023/01/14 07:19:38;;;;;;;48.25;21.50;;;3.60;99.90;;;;;;4935268;29;20364;-77
2023/01/14 07:22:04;;;;;;;;;;;3.50;99.90;;;;;;4936457;29;20035;-77
2023/01/14 07:24:30;;;;;;;52.78;21.15;;;3.50;99.90;;;;;;4936322;29;20021;-78
2023/01/14 07:26:55;;;;;;;;;;;3.60;99.90;;;;;;4936723;29;20023;-78
2023/01/14 07:29:21;;;;;;;75.30;17.30;;;3.60;99.90;;;;;;4953515;29;20348;-77
2023/01/14 07:31:47;;;;;;;;;;;3.60;99.90;;;;;;4953186;29;20648;-77
2023/01/14 07:34:12;;;;;;;89.20;19.83;;;3.60;99.90;;;;;;4936105;29;19910;-76
2023/01/14 07:36:38;;;;;;;;;;;3.70;99.90;;;;;;4954379;29;20489;-78
2023/01/14 07:39:04;;;;;;;102.70;18.17;;;3.70;99.90;;;;;;4952994;29;19969;-78
2023/01/14 07:41:30;;;;;;;;;;;3.80;99.90;;;;;;4953346;29;20035;-76
2023/01/14 07:43:55;;;;;;;79.03;16.58;;;3.80;99.90;;;;;;4952889;29;19941;-76
2023/01/14 07:46:21;;;;;;;;;;;3.80;99.90;;;;;;4954460;29;20054;-76
2023/01/14 07:48:47;;;;;;;106.20;16.48;;;3.90;99.90;;;;;;4953410;29;20383;-76
2023/01/14 07:51:13;;;;;;;;;;;3.90;99.90;;;;;;4955385;29;20598;-76
2023/01/14 07:53:39;;;;;;;93.65;20.10;;;3.90;99.90;;;;;;4936843;29;19910;-77
2023/01/14 07:56:06;;;;;;;76.95;18.02;;;3.90;99.90;;;;;;4935271;29;20039;-77
2023/01/14 07:58:33;;;;;;;111.32;21.92;;;4.00;99.90;;;;;;4935233;29;20109;-76
2023/01/14 08:01:04;;;;;;;58.00;18.88;;;4.10;99.90;;;;;;4953972;29;20027;-76
2023/01/14 08:03:29;;;;;;;43.17;18.75;;;4.10;99.90;;;;;;4936208;29;20177;-77
2023/01/14 08:05:55;;;;;;;;;;;4.30;99.90;;;;;;4953802;29;20098;-78
2023/01/14 08:08:21;;;;;;;33.60;17.17;;;4.40;99.90;;;;;;4935709;29;19958;-77
2023/01/14 08:10:46;;;;;;;;;;;4.60;99.90;;;;;;4935118;29;20059;-76
2023/01/14 08:13:13;;;;;;;39.25;19.35;;;4.90;99.90;;;;;;4934136;29;20429;-76
2023/01/14 08:15:39;;;;;;;32.70;17.42;;;5.20;99.90;;;;;;4936738;29;20050;-77
2023/01/14 08:18:04;;;;;;;49.25;21.88;;;5.40;99.90;;;;;;4936514;29;20047;-77
2023/01/14 08:20:30;;;;;;;;;;;5.60;99.90;;;;;;4937642;29;20067;-77
2023/01/14 08:23:00;;;;;;;38.72;17.13;;;5.70;99.90;;;;;;4936918;29;20438;-78
2023/01/14 08:25:27;;;;;;;38.83;21.60;;;5.70;99.90;;;;;;4937056;29;20030;-77
2023/01/14 08:27:53;;;;;;;33.55;18.42;;;5.60;99.90;;;;;;4935713;29;20106;-76
2023/01/14 08:30:19;;;;;;;;;;;5.60;99.90;;;;;;4935239;29;20083;-77
2023/01/14 08:32:44;;;;;;;117.75;63.38;;;5.50;99.90;;;;;;4951936;29;20296;-76
2023/01/14 08:35:10;;;;;;;;;;;5.50;99.90;;;;;;4935359;29;20035;-76
2023/01/14 08:37:36;;;;;;;53.60;29.02;;;5.60;99.90;;;;;;4951635;29;20055;-77
2023/01/14 08:40:02;;;;;;;;;;;5.90;99.90;;;;;;4937876;29;20449;-77
2023/01/14 08:42:28;;;;;;;31.95;18.77;;;6.20;99.90;;;;;;4935839;29;19981;-76
2023/01/14 08:44:54;;;;;;;;;;;6.60;99.90;;;;;;4955579;29;20527;-76
2023/01/14 08:47:20;;;;;;;31.00;17.58;;;7.10;99.90;;;;;;4936392;29;19928;-76
2023/01/14 08:49:45;;;;;;;;;;;7.30;99.90;;;;;;4937563;29;20071;-77
2023/01/14 08:52:11;;;;;;;30.63;19.67;;;7.30;99.90;;;;;;4953202;29;19912;-77
2023/01/14 08:54:36;;;;;;;;;;;7.50;99.90;;;;;;4937548;29;20047;-77
2023/01/14 08:57:02;;;;;;;37.60;23.15;;;7.60;99.90;;;;;;4936719;29;19947;-78
2023/01/14 08:59:28;;;;;;;;;;;7.60;99.90;;;;;;4937851;29;20133;-77
2023/01/14 09:01:53;;;;;;;36.60;22.40;;;7.30;99.90;;;;;;4955412;29;19917;-77
2023/01/14 09:04:19;;;;;;;;;;;7.20;99.90;;;;;;4938751;29;20572;-77
2023/01/14 09:17:43;;;;;;;31.27;20.10;;;6.30;99.90;;;;;;4957234;29;20132;-76
2023/01/14 09:20:12;;;;;;;33.70;19.65;;;6.30;99.90;;;;;;4955372;29;20106;-76
2023/01/14 09:22:38;;;;;;;28.42;18.50;;;6.30;99.90;;;;;;4954826;28;20112;-76
2023/01/14 09:25:05;;;;;;;25.73;17.63;;;6.30;99.90;;;;;;4938242;29;20023;-75
2023/01/14 09:27:31;;;;;;;29.92;18.50;;;6.50;99.90;;;;;;4937753;29;20126;-75
2023/01/14 09:29:57;;;;;;;;;;;6.70;99.90;;;;;;4955738;28;20042;-77
2023/01/14 09:32:22;;;;;;;35.22;22.35;;;7.00;99.90;;;;;;4954794;29;20384;-76
2023/01/14 09:34:50;;;;;;;;;;;7.10;99.90;;;;;;4938232;29;20032;-76
2023/01/14 09:37:20;;;;;;;19.65;11.95;;;7.20;99.90;;;;;;4938026;29;19993;-76
2023/01/14 09:39:46;;;;;;;106.50;48.50;;;7.40;99.90;;;;;;4938163;29;20031;-76
2023/01/14 09:42:16;;;;;;;20.48;13.15;;;7.50;99.90;;;;;;4937500;29;20030;-76
2023/01/14 09:44:43;;;;;;;27.27;14.63;;;7.30;99.90;;;;;;4938173;29;20031;-76
2023/01/14 09:47:23;;;;;;;47.00;29.17;;;7.40;99.90;;;;;;4938625;29;20159;-77
2023/01/14 09:49:48;;;;;;;24.00;15.52;;;7.60;99.90;;;;;;4956038;29;20039;-77
2023/01/14 09:52:17;;;;;;;;;;;7.70;99.90;;;;;;4938890;29;20023;-76
2023/01/14 09:55:17;;;;;;;19.02;12.32;;;7.70;99.90;;;;;;4939012;29;19993;-76
2023/01/14 09:57:50;;;;;;;19.85;12.82;;;7.60;99.90;;;;;;4940388;29;20058;-77
2023/01/14 10:00:48;;;;;;;19.80;12.90;;;7.50;99.90;;;;;;4941158;29;20100;-77
2023/01/14 10:03:24;;;;;;;23.67;15.73;;;7.50;99.90;;;;;;4940720;29;20027;-77
2023/01/14 10:06:03;;;;;;;21.42;14.07;;;7.40;99.90;;;;;;4940048;29;20035;-77
2023/01/14 10:08:40;;;;;;;27.55;13.80;;;7.40;99.90;;;;;;4955919;29;20035;-76
2023/01/14 10:11:06;;;;;;;;;;;7.40;99.90;;;;;;4940796;29;20560;-77
2023/01/14 10:13:49;;;;;;;23.13;14.45;;;7.40;99.90;;;;;;4958752;29;19916;-77
2023/01/14 10:16:27;;;;;;;23.88;14.23;;;7.30;99.90;;;;;;4958670;29;20039;-78
2023/01/14 10:19:11;;;;;;;19.30;13.20;;;7.30;99.90;;;;;;4957111;29;20110;-77
2023/01/14 10:21:47;;;;;;;24.33;14.82;;;7.50;99.90;;;;;;4959964;28;20042;-77
2023/01/14 10:24:15;;;;;;;30.67;20.13;;;7.50;99.90;;;;;;4941926;29;20037;-77
2023/01/14 10:26:42;;;;;;;33.92;20.63;;;7.60;99.90;;;;;;4959910;29;20046;-77
2023/01/14 10:29:22;;;;;;;33.80;22.13;;;7.70;99.90;;;;;;4960414;29;20086;-78
2023/01/14 10:31:53;;;;;;;37.67;22.90;;;7.70;99.90;;;;;;4959528;29;20027;-78
2023/01/14 10:34:31;;;;;;;36.00;22.45;;;7.70;99.90;;;;;;4942976;29;20031;-77
2023/01/14 10:36:57;;;;;;;36.03;23.25;;;7.80;99.90;;;;;;4956012;29;20034;-80
2023/01/14 10:39:23;;;;;;;;;;;7.90;99.90;;;;;;4958268;29;20019;-76
2023/01/14 10:41:49;;;;;;;38.95;23.10;;;8.10;99.90;;;;;;4940499;29;19907;-77
2023/01/14 10:44:29;;;;;;;45.70;25.70;;;8.30;99.90;;;;;;4959233;29;20023;-77
2023/01/14 10:46:59;;;;;;;49.35;27.38;;;8.50;99.90;;;;;;4942767;29;20027;-77
2023/01/14 10:49:37;;;;;;;37.85;23.35;;;8.60;99.90;;;;;;4959462;29;20035;-80
2023/01/14 10:52:32;;;;;;;36.78;22.13;;;8.70;99.90;;;;;;4958793;29;20023;-78
2023/01/14 10:54:59;;;;;;;45.15;25.92;;;8.40;99.90;;;;;;4942015;29;20031;-78
2023/01/14 10:57:27;;;;;;;69.78;42.25;;;8.30;99.90;;;;;;4941695;29;20058;-77
2023/01/14 10:59:56;;;;;;;44.92;26.45;;;8.10;99.90;;;;;;4941630;29;20035;-77
2023/01/14 11:02:22;;;;;;;51.38;31.50;;;7.90;99.90;;;;;;4942116;29;20114;-77
2023/01/14 11:04:48;;;;;;;;;;;7.60;99.90;;;;;;4960140;29;20109;-78
2023/01/14 11:07:29;;;;;;;38.42;23.02;;;7.50;99.90;;;;;;4940840;29;19910;-77
2023/01/14 11:09:57;;;;;;;47.85;28.35;;;7.30;99.90;;;;;;4957617;29;20142;-78
2023/01/14 11:12:32;;;;;;;65.68;34.42;;;7.20;99.90;;;;;;4941400;29;20110;-78
2023/01/14 11:14:59;;;;;;;41.38;25.23;;;7.00;99.90;;;;;;4940896;29;20456;-77
2023/01/14 11:17:31;;;;;;;34.58;21.90;;;6.80;99.90;;;;;;4938468;29;20504;-78
2023/01/14 11:20:23;;;;;;;35.10;22.77;;;6.60;99.90;;;;;;4939650;29;20027;-77
2023/01/14 11:23:22;;;;;;;159.15;72.78;;;6.50;99.90;;;;;;4939329;29;20607;-77
2023/01/14 11:25:50;;;;;;;217.07;120.53;;;6.30;99.90;;;;;;4956255;29;20508;-77
2023/01/14 11:28:16;;;;;;;114.40;65.65;;;6.20;99.90;;;;;;4955685;29;20028;-78
2023/01/14 11:30:43;;;;;;;;;;;6.20;99.90;;;;;;4957522;28;20050;-77
2023/01/14 11:33:25;;;;;;;51.97;30.52;;;6.20;99.90;;;;;;4939689;28;19993;-77
2023/01/14 11:35:57;;;;;;;43.53;25.17;;;6.20;99.90;;;;;;4942323;29;20035;-77
2023/01/14 11:38:25;;;;;;;52.70;29.55;;;6.10;99.90;;;;;;4941444;29;20460;-77
2023/01/14 11:44:15;;;;;;;35.65;20.75;;;6.10;99.90;;;;;;4956734;29;20038;-78
2023/01/14 11:46:44;;;;;;;35.33;20.63;;;6.00;99.90;;;;;;4949906;28;20047;-78
2023/01/14 11:49:12;;;;;;;43.50;23.25;;;6.00;99.90;;;;;;4939656;29;20174;-78
2023/01/14 11:51:40;;;;;;;32.20;21.30;;;5.90;99.90;;;;;;4939812;29;20027;-78
2023/01/14 11:54:19;;;;;;;35.50;21.55;;;6.00;99.90;;;;;;4939686;29;20027;-78
2023/01/14 11:56:46;;;;;;;40.67;23.65;;;6.10;99.90;;;;;;4938843;29;20050;-78
2023/01/14 11:59:30;;;;;;;40.05;24.88;;;6.10;99.90;;;;;;4956634;29;20033;-78
2023/01/14 12:02:21;;;;;;;33.88;20.45;;;6.20;99.90;;;;;;4940022;29;20035;-79
2023/01/14 12:04:52;;;;;;;49.30;30.80;;;6.30;99.90;;;;;;4939732;29;20045;-78
2023/01/14 12:07:26;;;;;;;34.92;21.88;;;6.30;99.90;;;;;;4939325;29;20051;-79
2023/01/14 12:09:59;;;;;;;33.05;21.30;;;6.40;99.90;;;;;;4954873;29;20043;-76
2023/01/14 12:16:48;;;;;;;33.67;20.40;;;6.50;99.90;;;;;;4953027;29;20023;-77
2023/01/14 12:18:27;;;;;;;33.90;19.55;;;6.60;99.90;;;;;;4954773;29;20416;-77
2023/01/14 12:20:53;;;;;;;37.00;21.30;;;6.70;99.90;;;;;;4936155;29;20032;-77
2023/01/14 12:23:24;;;;;;;30.15;18.80;;;6.70;99.90;;;;;;4953521;29;20031;-77
2023/01/14 12:25:53;;;;;;;40.28;24.58;;;6.70;99.90;;;;;;4937003;29;20035;-77
2023/01/14 12:28:25;;;;;;;34.95;20.65;;;6.70;99.90;;;;;;4936425;29;20027;-77
2023/01/14 12:31:06;;;;;;;42.78;25.75;;;6.70;99.90;;;;;;4936155;29;20027;-77
2023/01/14 12:33:32;;;;;;;200.45;114.38;;;6.70;99.90;;;;;;4952395;29;20043;-77
2023/01/14 12:36:23;;;;;;;;;;;6.70;99.90;;;;;;4955749;29;20031;-77
2023/01/14 12:47:41;;;;;;;40.78;23.67;;;6.60;99.90;;;;;;4956883;29;20085;-77
2023/01/14 12:50:10;;;;;;;33.00;19.00;;;6.60;99.90;;;;;;4958372;29;20057;-77
2023/01/14 12:52:47;;;;;;;39.10;23.38;;;6.60;99.90;;;;;;4958553;29;20031;-76
2023/01/14 12:55:36;;;;;;;39.80;23.38;;;6.60;99.90;;;;;;4958739;28;20046;-77
2023/01/14 12:58:05;;;;;;;33.83;21.50;;;6.50;99.90;;;;;;4957737;29;20158;-78
2023/01/14 13:00:33;;;;;;;34.95;23.13;;;6.60;99.90;;;;;;4941623;29;20555;-77
2023/01/14 13:03:18;;;;;;;47.47;30.58;;;6.60;99.90;;;;;;4942428;29;20057;-77
2023/01/14 13:05:44;;;;;;;40.28;25.02;;;6.60;99.90;;;;;;4959499;29;20039;-77
2023/01/14 13:08:40;;;;;;;39.08;25.67;;;6.60;99.90;;;;;;4942436;29;20035;-77
2023/01/14 13:11:37;;;;;;;33.72;22.52;;;6.60;99.90;;;;;;4944186;29;20035;-77
2023/01/14 13:14:04;;;;;;;41.42;24.00;;;6.60;99.90;;;;;;4943363;29;20404;-78
2023/01/14 13:16:40;;;;;;;32.33;20.95;;;6.70;99.90;;;;;;4961105;29;20030;-77
2023/01/14 13:19:26;;;;;;;30.90;20.65;;;6.70;99.90;;;;;;4943287;29;20110;-77
2023/01/14 13:22:01;;;;;;;37.33;24.25;;;6.70;99.90;;;;;;4943559;29;20031;-77
2023/01/14 13:24:46;;;;;;;56.83;39.17;;;6.80;99.90;;;;;;4959776;29;20027;-77
2023/01/14 13:27:32;;;;;;;47.15;28.48;;;6.80;99.90;;;;;;4961940;29;20082;-77
2023/01/14 13:30:16;;;;;;;37.67;24.48;;;6.90;99.90;;;;;;4948299;28;20054;-77
2023/01/14 13:33:00;;;;;;;42.10;24.50;;;7.00;99.90;;;;;;4960075;29;20116;-77
2023/01/14 13:35:31;;;;;;;39.90;26.10;;;7.00;99.90;;;;;;4960733;29;20031;-79
2023/01/14 13:38:00;;;;;;;36.15;23.58;;;7.00;99.90;;;;;;4943388;29;20033;-77
2023/01/14 13:40:31;;;;;;;131.25;62.72;;;7.00;99.90;;;;;;4944707;29;20057;-77
2023/01/14 13:43:01;;;;;;;45.25;27.70;;;6.90;99.90;;;;;;4961303;29;20031;-78
2023/01/14 13:45:28;;;;;;;48.00;28.33;;;6.90;99.90;;;;;;4943428;29;20118;-77
2023/01/14 13:47:57;;;;;;;45.22;27.73;;;6.80;99.90;;;;;;4943210;29;20038;-77
2023/01/14 13:50:32;;;;;;;39.85;24.70;;;6.80;99.90;;;;;;4959265;29;20107;-77
2023/01/14 13:53:08;;;;;;;38.40;23.92;;;6.80;99.90;;;;;;4942797;29;20125;-77
2023/01/14 13:55:35;;;;;;;41.25;22.48;;;6.80;99.90;;;;;;4960284;28;20043;-77
2023/01/14 13:58:16;;;;;;;32.78;21.65;;;6.80;99.90;;;;;;4960169;28;20078;-78
2023/01/14 14:00:44;;;;;;;35.88;22.27;;;6.70;99.90;;;;;;4961817;29;20079;-77